Latest Coastal Weather Observations for Moorabbin Airport

IDV60701

Issued at 6:15 pm EDT Friday 31 October 2014 (issued every 10 minutes, with the page automatically refreshed every 10 minutes)

About coastal observations | Map of coastal stations | Coastal observations for VIC | Marine services | Other Formats
Station Details ID: 086077 Name: MOORABBIN AIRPORT Lat: -37.98 Lon: 145.10 Height: 12.1 m
Data from the previous 72 hours. | See also: Recent months at Moorabbin Airport
Date/Time
EDT
Temp

°C
Wind Pressure Rain
since 9am
mm
Weather Cloud Vis
km
Sea
Height
m
Swell
Dir
 
Speed
knots
Gust
knots
hPa Trend Height
m
Period
s
Dir
31/06:00pm 31.4 NNW 17 22 999.3 - 0.0 - - 10 - - - -
31/05:30pm 32.2 NNW 17 23 999.7 - 0.0 - - 10 - - - -
31/05:00pm 32.0 NNW 19 31 999.9 - 0.0 - - 10 - - - -
31/04:30pm 32.1 NNW 17 27 1000.3 - 0.0 - - 10 - - - -
31/04:00pm 31.5 N 19 34 1000.6 - 0.0 - - 10 - - - -
31/03:38pm 31.4 NNW 17 30 1001.2 - 0.0 - - 10 - - - -
31/03:30pm 30.8 N 19 26 1001.3 - 0.0 - - 10 - - - -
31/03:01pm 30.3 N 20 30 1002.0 - 0.0 - - 10 - - - -
31/03:00pm 30.3 N 21 30 1002.0 - 0.0 - - 10 - - - -
31/02:34pm 30.2 N 19 31 1002.4 - 0.0 - - 10 - - - -
31/02:30pm 30.0 N 19 27 1002.6 - 0.0 - - 10 - - - -
31/02:00pm 29.4 N 17 25 1003.3 - 0.0 - - 10 - - - -
31/01:31pm 28.9 N 18 28 1003.9 - 0.0 - - 10 - - - -
31/01:30pm 29.3 N 19 28 1003.9 - 0.0 - - 10 - - - -
31/01:00pm 27.8 N 19 26 1004.5 - 0.0 - - 10 - - - -
31/12:30pm 27.9 N 18 26 1005.2 - 0.0 - - 10 - - - -
31/12:00pm 24.8 N 14 19 1006.2 - 0.0 - Cloudy 10 - - - -
31/11:30am 24.4 N 11 16 1007.1 - 0.0 - - 10 - - - -
31/11:00am 22.4 N 11 14 1007.8 - 0.0 - - 10 - - - -
31/10:30am 20.8 N 9 11 1008.2 - 0.0 - - 10 - - - -
31/10:00am 18.5 N 5 7 1008.7 - 0.0 - - 10 - - - -
31/09:30am 16.9 N 5 6 1009.1 - 0.0 - - 10 - - - -
31/09:00am 15.2 N 6 8 1009.4 - 0.0 - - 10 - - - -
31/08:30am 13.9 N 4 6 1009.8 - 0.0 - - 10 - - - -
31/08:00am 13.2 N 6 7 1009.9 - 0.0 - - 10 - - - -
31/07:30am 12.1 N 5 6 1010.2 - 0.0 - - 10 - - - -
31/07:00am 10.6 N 5 6 1010.5 - 0.0 - - 10 - - - -
31/06:30am 9.7 N 3 5 1010.6 - 0.0 - - 10 - - - -
31/06:00am 9.2 N 3 5 1010.6 - 0.0 - - 10 - - - -
31/05:30am 9.2 NW 2 3 1010.4 - 0.0 - - 10 - - - -
31/05:00am 8.7 NNE 5 6 1010.5 - 0.0 - - 10 - - - -
31/04:30am 9.2 CALM 0 0 1011.0 - 0.0 - - 10 - - - -
31/04:00am 9.5 CALM 0 0 1010.9 - 0.0 - - 10 - - - -
31/03:30am 9.4 CALM 0 0 1011.4 - 0.0 - - 10 - - - -
31/03:00am 10.3 N 3 3 1011.7 - 0.0 - - 10 - - - -
31/02:30am 9.9 CALM 0 0 1012.0 - 0.0 - - 10 - - - -
31/02:00am 10.5 N 1 2 1012.5 - 0.0 - - 10 - - - -
31/01:30am 11.1 CALM 0 0 1013.1 - 0.0 - - 10 - - - -
31/01:00am 10.8 SE 1 3 1013.8 - 0.0 - - 10 - - - -
31/12:30am 10.9 SE 3 4 1013.8 - 0.0 - - 10 - - - -
31/12:00am 11.3 SE 4 5 1013.9 - 0.0 - - 10 - - - -
 
Date/Time
EDT
Temp

°C
Wind Pressure Rain
since 9am
mm
Weather Cloud Vis
km
Sea
Height
m
Swell
Dir
 
Speed
knots
Gust
knots
hPa Trend Height
m
Period
s
Dir
30/11:30pm 11.7 SE 5 6 1013.9 - 0.0 - - 10 - - - -
30/11:00pm 12.0 SSE 5 7 1014.1 - 0.0 - - 10 - - - -
30/10:30pm 12.4 SE 7 9 1014.1 - 0.0 - - 10 - - - -
30/10:00pm 13.0 SE 8 9 1014.0 - 0.0 - - 10 - - - -
30/09:30pm 13.1 SE 8 9 1013.7 - 0.0 - - 10 - - - -
30/09:00pm 13.7 SE 8 11 1013.7 - 0.0 - - 10 - - - -
30/08:30pm 14.2 SE 10 13 1013.5 - 0.0 - - 10 - - - -
30/08:00pm 15.0 SE 11 14 1013.2 - 0.0 - - 10 - - - -
30/07:30pm 16.5 S 6 11 1012.8 - 0.0 - - 10 - - - -
30/07:00pm 17.4 SSW 7 9 1012.9 - 0.0 - - 10 - - - -
30/06:30pm 17.9 S 9 11 1012.6 - 0.0 - - 10 - - - -
30/06:00pm 18.6 S 9 12 1012.8 - 0.0 - - 10 - - - -
30/05:30pm 18.6 S 10 13 1012.8 - 0.0 - - 10 - - - -
30/05:00pm 18.6 SSW 11 14 1012.9 - 0.0 - - 10 - - - -
30/04:30pm 18.4 S 11 14 1012.8 - 0.0 - - 10 - - - -
30/04:00pm 18.0 S 11 15 1013.0 - 0.0 - - 10 - - - -
30/03:30pm 18.2 SSW 10 12 1013.0 - 0.0 - - 10 - - - -
30/03:00pm 18.7 SSW 9 13 1013.3 - 0.0 - - 10 - - - -
30/02:30pm 18.1 SSW 8 12 1013.6 - 0.0 - - 10 - - - -
30/02:00pm 18.0 SSW 9 13 1013.9 - 0.0 - - 10 - - - -
30/01:30pm 18.0 SW 10 13 1014.3 - 0.0 - - 10 - - - -
30/01:00pm 17.2 SW 11 14 1014.7 - 0.0 - - 10 - - - -
30/12:30pm 17.2 SSW 8 14 1014.8 - 0.0 - - 10 - - - -
30/12:00pm 16.7 SW 8 13 1015.0 - 0.0 - - 10 - - - -
30/11:30am 16.0 SSW 10 13 1015.4 - 0.0 - Partly cloudy 10 - - - -
30/11:00am 15.6 WSW 10 15 1015.7 - 0.0 - Cloudy 10 - - - -
30/10:30am 15.1 SW 11 16 1016.1 - 0.0 - Partly cloudy 10 - - - -
30/10:00am 14.9 WSW 11 15 1015.9 - 0.0 - Cloudy 10 - - - -
30/09:30am 14.8 W 10 14 1015.8 - 0.0 - Partly cloudy 10 - - - -
30/09:00am 14.7 WNW 9 13 1015.8 - 0.0 - Cloudy 10 - - - -
30/08:30am 14.3 W 9 14 1015.6 - 0.0 - Cloudy 10 - - - -
30/08:25am 14.3 W 9 14 1015.5 - 0.0 - Partly cloudy 10 - - - -
30/08:00am 14.4 WSW 10 13 1015.8 - 0.0 - Partly cloudy 4 - - - -
30/07:30am 14.5 W 7 11 1015.0 - 0.0 - Cloudy 4 - - - -
30/07:06am 14.4 W 8 11 1014.9 - 0.0 - Cloudy 5 - - - -
30/07:00am 14.4 W 6 9 1014.9 - 0.0 - Cloudy 10 - - - -
30/06:30am 14.3 WNW 5 7 1014.4 - 0.0 - Cloudy 10 - - - -
30/06:00am 14.2 WNW 5 8 1014.2 - 0.0 - Mostly cloudy 10 - - - -
30/05:30am 14.2 W 5 6 1014.6 - 0.0 - Partly cloudy 10 - - - -
30/05:00am 14.0 WNW 3 5 1014.5 - 0.0 - Cloudy 10 - - - -
30/04:30am 13.8 NNW 3 4 1014.3 - 0.0 - Partly cloudy 10 - - - -
30/04:00am 13.8 N 5 6 1014.2 - 0.0 - Cloudy 10 - - - -
30/03:30am 13.7 NNW 4 6 1014.4 - 0.0 - Cloudy 10 - - - -
30/03:00am 13.8 NNW 5 6 1014.6 - 0.0 - Cloudy 10 - - - -
30/02:30am 13.7 NNW 3 4 1014.9 - 0.0 - Cloudy 10 - - - -
30/02:00am 13.3 N 4 5 1015.2 - 0.0 - Partly cloudy 10 - - - -
30/01:30am 13.1 N 3 4 1015.7 - 0.0 - Cloudy 10 - - - -
30/01:00am 12.5 NNW 3 4 1016.0 - 0.0 - Cloudy 10 - - - -
30/12:30am 12.1 NW 3 4 1016.3 - 0.0 - Partly cloudy 10 - - - -
30/12:00am 12.1 CALM 0 0 1016.2 - 0.0 - - 10 - - - -
 
Date/Time
EDT
Temp

°C
Wind Pressure Rain
since 9am
mm
Weather Cloud Vis
km
Sea
Height
m
Swell
Dir
 
Speed
knots
Gust
knots
hPa Trend Height
m
Period
s
Dir
29/11:30pm 12.4 E 4 5 1016.2 - 0.0 - - 10 - - - -
29/11:00pm 12.2 E 4 4 1016.4 - 0.0 - - 10 - - - -
29/10:30pm 12.1 ESE 6 7 1016.3 - 0.0 - - 10 - - - -
29/10:00pm 13.0 SE 7 8 1016.5 - 0.0 - - 10 - - - -
29/09:30pm 13.1 SE 8 10 1016.3 - 0.0 - - 10 - - - -
29/09:00pm 13.7 SE 8 9 1016.0 - 0.0 - - 10 - - - -
29/08:30pm 15.5 SSE 8 11 1015.7 - 0.0 - - 10 - - - -
29/08:00pm 16.0 S 9 11 1015.3 - 0.0 - - 10 - - - -
29/07:30pm 16.7 SSW 10 15 1014.8 - 0.0 - - 10 - - - -
29/07:00pm 16.9 SSW 13 17 1014.5 - 0.0 - - 10 - - - -
29/06:30pm 17.3 SSW 14 19 1014.5 - 0.0 - Partly cloudy 10 - - - -
29/06:00pm 18.2 S 12 16 1014.3 - 0.0 - - 10 - - - -
29/05:30pm 19.3 SSW 10 13 1014.3 - 0.0 - - 10 - - - -
29/05:00pm 19.6 SSW 10 13 1014.4 - 0.0 - - 10 - - - -
29/04:30pm 19.2 SW 8 11 1014.5 - 0.0 - - 10 - - - -
29/04:00pm 18.9 SSW 9 11 1014.8 - 0.0 - - 10 - - - -
29/03:30pm 18.6 SSW 8 11 1015.2 - 0.0 - - 10 - - - -
29/03:00pm 18.5 SW 8 11 1015.6 - 0.0 - - 10 - - - -
29/02:30pm 18.6 WSW 7 13 1016.2 - 0.0 - - 10 - - - -
29/02:00pm 17.6 SW 8 11 1016.7 - 0.0 - - 10 - - - -
29/01:30pm 17.0 SW 10 14 1017.1 - 0.0 - - 10 - - - -
29/01:00pm 17.2 SW 9 13 1017.4 - 0.0 - Partly cloudy 10 - - - -
29/12:30pm 16.4 WNW 9 13 1017.8 - 0.0 - Cloudy 10 - - - -
29/12:00pm 15.9 WNW 9 13 1018.2 - 0.0 - Cloudy 10 - - - -
29/11:30am 15.5 WNW 7 13 1018.4 - 0.0 - Cloudy 10 - - - -
29/11:00am 14.8 W 8 11 1018.7 - 0.0 - Cloudy 10 - - - -
29/10:30am 14.2 W 7 11 1018.9 - 0.0 - Cloudy 10 - - - -
29/10:00am 14.0 W 7 12 1018.9 - 0.0 - Partly cloudy 10 - - - -
29/09:30am 14.1 WNW 6 8 1019.0 - 0.0 - Partly cloudy 10 - - - -
29/09:00am 13.4 WNW 7 11 1018.9 - 1.4 - Mostly cloudy 10 - - - -
29/08:30am 13.2 NW 7 11 1018.7 - 1.4 - Cloudy 10 - - - -
29/08:00am 12.3 NNW 7 9 1018.6 - 1.4 - Partly cloudy 10 - - - -
29/07:30am 12.0 N 6 9 1018.5 - 1.4 - Cloudy 10 - - - -
29/07:00am 11.5 NNW 6 9 1018.3 - 1.4 - Partly cloudy 10 - - - -
29/06:30am 11.3 NW 5 7 1017.9 - 1.4 - Cloudy 10 - - - -
29/06:00am 10.6 NW 5 6 1017.6 - 1.4 - Partly cloudy 10 - - - -
29/05:30am 10.7 NW 5 7 1017.4 - 1.4 - Partly cloudy 10 - - - -
29/05:00am 10.9 NW 6 9 1017.2 - 1.4 - Partly cloudy 10 - - - -
29/04:30am 11.5 WNW 7 9 1017.1 - 1.4 - Partly cloudy 10 - - - -
29/04:00am 11.7 WNW 7 10 1016.9 - 1.4 - Partly cloudy 10 - - - -
29/03:30am 12.4 WNW 7 9 1016.8 - 1.4 - Cloudy 10 - - - -
29/03:00am 12.8 W 7 11 1016.8 - 1.4 - Mostly cloudy 10 - - - -
29/02:30am 13.0 W 8 16 1016.8 - 1.4 - Cloudy 10 - - - -
29/02:00am 12.9 W 9 16 1016.8 - 1.4 - Partly cloudy 10 - - - -
29/01:30am 13.1 W 10 14 1017.2 - 1.4 - Partly cloudy 10 - - - -
29/01:00am 13.2 W 9 11 1017.4 - 1.4 - Partly cloudy 10 - - - -
29/12:30am 13.3 W 7 13 1017.5 - 1.4 - Cloudy 10 - - - -
29/12:00am 13.4 W 10 17 1017.5 - 1.4 - Cloudy 10 - - - -
 
Date/Time
EDT
Temp

°C
Wind Pressure Rain
since 9am
mm
Weather Cloud Vis
km
Sea
Height
m
Swell
Dir
 
Speed
knots
Gust
knots
hPa Trend Height
m
Period
s
Dir
28/11:30pm 13.4 WSW 9 13 1017.3 - 1.4 - Partly cloudy 10 - - - -
28/11:00pm 13.2 WSW 13 19 1017.4 - 1.4 - Partly cloudy 10 - - - -
28/10:30pm 13.1 W 13 21 1017.3 - 1.4 - - 10 - - - -
28/10:00pm 13.3 W 14 21 1017.2 - 1.4 - - 10 - - - -
28/09:58pm 13.3 W 15 25 1017.2 - 1.4 - - 10 - - - -
28/09:30pm 13.5 WSW 12 18 1016.9 - 1.4 - Partly cloudy 10 - - - -
28/09:00pm 14.0 SW 11 15 1016.7 - 1.4 - Partly cloudy 10 - - - -
28/08:30pm 14.9 WSW 15 21 1016.1 - 1.4 - Cloudy 10 - - - -
28/08:00pm 15.3 WSW 13 20 1015.5 - 1.4 - Partly cloudy 10 - - - -
28/07:30pm 14.6 SW 10 15 1015.2 - 1.4 - Partly cloudy 10 - - - -
28/07:00pm 14.5 SSW 13 17 1014.7 - 1.4 - Partly cloudy 10 - - - -
28/06:30pm 15.1 SSW 13 17 1014.2 - 1.4 - Cloudy 9 - - - -

Other Formats:

Comma delimited format used in spreadsheet applications
http://www.bom.gov.au/fwo/IDV60701/IDV60701.94870.axf

JavaScript Object Notation format (JSON) in row-major order
http://www.bom.gov.au/fwo/IDV60701/IDV60701.94870.json